Time;durP1;ratioP1;P1;durP2;ratioP2;P2;SDS_P1;SDS_P2;PMS_P1;PMS_P2;Temp;Humidity;BMP_temperature;BMP_pressure;BME280_temperature;BME280_humidity;BME280_pressure;Samples;Min_cycle;Max_cycle;Signal;HPM_P1;HPM_P2
2023/07/29 00:00:41;;;;;;;3.37;2.97;;;19.30;99.90;;;;;;5034001;28;20451;-61
2023/07/29 00:03:07;;;;;;;4.37;3.40;;;19.30;99.90;;;;;;5033937;28;20441;-62
2023/07/29 00:05:34;;;;;;;3.30;2.37;;;19.20;99.90;;;;;;5034453;28;20445;-61
2023/07/29 00:08:01;;;;;;;3.30;3.00;;;19.20;99.90;;;;;;5034140;28;20539;-63
2023/07/29 00:10:28;;;;;;;2.97;2.60;;;19.20;99.90;;;;;;5034521;28;20467;-62
2023/07/29 00:12:55;;;;;;;3.27;2.97;;;19.20;99.90;;;;;;5034204;28;20445;-61
2023/07/29 00:15:22;;;;;;;2.90;2.70;;;19.10;99.90;;;;;;5033904;28;20544;-62
2023/07/29 00:17:50;;;;;;;2.93;2.73;;;19.20;99.90;;;;;;5048139;22;20551;-64
2023/07/29 00:20:17;;;;;;;3.33;2.97;;;19.10;99.90;;;;;;5033558;28;20441;-64
2023/07/29 00:22:43;;;;;;;2.50;2.30;;;19.10;99.90;;;;;;5033799;28;20825;-63
2023/07/29 00:25:10;;;;;;;2.93;2.50;;;19.00;99.90;;;;;;5033499;28;20441;-64
2023/07/29 00:27:37;;;;;;;5.10;2.80;;;19.00;99.90;;;;;;5035716;28;20540;-65
2023/07/29 00:30:05;;;;;;;3.30;3.00;;;18.90;99.90;;;;;;5038244;28;20447;-63
2023/07/29 00:32:32;;;;;;;2.63;2.40;;;18.90;99.90;;;;;;5037740;28;20441;-63
2023/07/29 00:35:01;;;;;;;3.57;2.50;;;18.80;99.90;;;;;;5037103;28;20440;-65
2023/07/29 00:37:28;;;;;;;3.47;2.70;;;18.90;99.90;;;;;;5037028;28;20836;-64
2023/07/29 00:39:55;;;;;;;2.97;2.77;;;18.80;99.90;;;;;;5037430;28;20441;-65
2023/07/29 00:42:21;;;;;;;3.40;2.17;;;18.80;99.90;;;;;;5037308;28;20467;-65
2023/07/29 00:44:48;;;;;;;2.63;2.00;;;18.80;99.90;;;;;;5037610;28;20448;-66
2023/07/29 00:47:17;;;;;;;3.80;3.17;;;18.70;99.90;;;;;;5037072;28;20467;-64
2023/07/29 00:49:45;;;;;;;3.60;2.67;;;18.70;99.90;;;;;;5037044;28;20445;-64
2023/07/29 00:52:13;;;;;;;2.63;2.43;;;18.70;99.90;;;;;;5036611;28;20449;-65
2023/07/29 00:54:40;;;;;;;2.67;2.47;;;18.60;99.90;;;;;;5036820;28;20444;-65
2023/07/29 00:57:09;;;;;;;3.80;2.87;;;18.60;99.90;;;;;;5036701;28;20491;-65
2023/07/29 00:59:36;;;;;;;2.53;2.33;;;18.60;99.90;;;;;;5036816;28;20440;-65
2023/07/29 01:02:04;;;;;;;2.90;2.67;;;18.60;99.90;;;;;;5037025;28;20451;-64
2023/07/29 01:04:32;;;;;;;2.67;2.47;;;18.50;99.90;;;;;;5037630;28;20532;-64
2023/07/29 01:07:07;;;;;;;2.70;2.50;;;18.50;99.90;;;;;;5036131;28;20975;-65
2023/07/29 01:09:49;;;;;;;3.90;2.83;;;18.50;99.90;;;;;;5036558;28;20799;-64
2023/07/29 01:12:21;;;;;;;2.53;2.33;;;18.50;99.90;;;;;;5051077;28;20421;-65
2023/07/29 01:14:56;;;;;;;3.00;2.70;;;18.50;99.90;;;;;;5053711;28;20421;-64
2023/07/29 01:17:26;;;;;;;2.30;2.10;;;18.50;99.90;;;;;;5046883;28;20486;-64
2023/07/29 01:20:02;;;;;;;3.73;2.53;;;18.50;99.90;;;;;;5040507;28;20481;-64
2023/07/29 01:22:30;;;;;;;2.50;2.30;;;18.50;99.90;;;;;;5038951;28;20499;-64
2023/07/29 01:24:59;;;;;;;2.70;2.50;;;18.50;99.90;;;;;;5038094;28;20491;-64
2023/07/29 01:27:26;;;;;;;2.67;2.20;;;18.50;99.90;;;;;;5036643;28;20469;-64
2023/07/29 01:29:53;;;;;;;2.93;2.47;;;18.50;99.90;;;;;;5036534;28;20559;-64
2023/07/29 01:32:28;;;;;;;2.07;1.87;;;18.50;99.90;;;;;;5036118;28;20444;-64
2023/07/29 01:35:01;;;;;;;2.40;2.20;;;18.40;99.90;;;;;;5036226;28;20467;-64
2023/07/29 01:37:31;;;;;;;2.90;2.30;;;18.40;99.90;;;;;;5036209;28;20484;-65
2023/07/29 01:40:00;;;;;;;2.73;2.53;;;18.40;99.90;;;;;;5035106;28;20946;-64
2023/07/29 01:42:28;;;;;;;3.00;2.47;;;18.30;99.90;;;;;;5036126;28;20447;-64
2023/07/29 01:44:55;;;;;;;4.90;2.43;;;18.30;99.90;;;;;;5035923;28;20448;-64
2023/07/29 01:47:23;;;;;;;2.50;2.30;;;18.30;99.90;;;;;;5035568;28;20970;-64
2023/07/29 01:49:49;;;;;;;3.13;2.87;;;18.20;99.90;;;;;;5035416;28;20506;-65
2023/07/29 01:52:16;;;;;;;9.97;3.13;;;18.20;99.90;;;;;;5035552;28;20938;-65
2023/07/29 01:54:43;;;;;;;2.70;2.50;;;18.30;99.90;;;;;;5035809;28;20449;-66
2023/07/29 01:57:11;;;;;;;2.93;2.70;;;18.30;99.90;;;;;;5035591;28;20481;-64
2023/07/29 01:59:38;;;;;;;3.37;3.07;;;18.30;99.90;;;;;;5035911;28;20445;-63
2023/07/29 02:02:05;;;;;;;2.80;2.60;;;18.40;99.90;;;;;;5035521;28;20536;-63
2023/07/29 02:04:31;;;;;;;2.43;2.23;;;18.40;99.90;;;;;;5035544;28;20456;-63
2023/07/29 02:06:58;;;;;;;2.73;2.53;;;18.50;99.90;;;;;;5035152;28;20461;-63
2023/07/29 02:09:25;;;;;;;2.97;2.67;;;18.50;99.90;;;;;;5035021;28;20467;-65
2023/07/29 02:11:52;;;;;;;3.30;2.90;;;18.50;99.90;;;;;;5035580;28;20460;-64
2023/07/29 02:14:20;;;;;;;2.63;2.33;;;18.60;99.90;;;;;;5035234;28;20940;-64
2023/07/29 02:16:47;;;;;;;2.70;2.50;;;18.60;99.90;;;;;;5035172;28;20508;-64
2023/07/29 02:19:14;;;;;;;3.53;2.60;;;18.60;99.90;;;;;;5036260;28;20426;-64
2023/07/29 02:21:41;;;;;;;3.73;2.90;;;18.70;99.90;;;;;;5036198;28;20445;-64
2023/07/29 02:24:07;;;;;;;2.53;2.33;;;18.70;99.90;;;;;;5034669;28;20449;-64
2023/07/29 02:26:34;;;;;;;2.30;2.00;;;18.70;99.90;;;;;;5034966;28;20465;-64
2023/07/29 02:29:01;;;;;;;3.07;2.43;;;18.70;99.90;;;;;;5035099;28;20540;-63
2023/07/29 02:31:29;;;;;;;2.53;2.33;;;18.70;99.90;;;;;;5034916;28;20453;-64
2023/07/29 02:33:56;;;;;;;2.70;2.50;;;18.80;99.90;;;;;;5035000;28;20939;-63
2023/07/29 02:36:23;;;;;;;2.70;2.50;;;18.80;99.90;;;;;;5035400;28;20464;-63
2023/07/29 02:38:50;;;;;;;2.93;2.50;;;18.80;99.90;;;;;;5034830;28;20469;-63
2023/07/29 02:41:16;;;;;;;2.70;2.50;;;18.80;99.90;;;;;;5034959;28;20448;-63
2023/07/29 02:43:43;;;;;;;3.40;2.20;;;18.80;99.90;;;;;;5034934;28;20449;-64
2023/07/29 02:46:10;;;;;;;2.10;1.90;;;18.80;99.90;;;;;;5034829;28;20445;-63
2023/07/29 02:48:38;;;;;;;4.47;2.47;;;18.80;99.90;;;;;;5034599;28;20467;-63
2023/07/29 02:51:05;;;;;;;2.93;2.30;;;18.80;99.90;;;;;;5033715;28;20449;-63
2023/07/29 02:53:32;;;;;;;2.93;2.67;;;18.80;99.90;;;;;;5035048;28;20445;-62
2023/07/29 02:55:59;;;;;;;2.63;2.30;;;18.80;99.90;;;;;;5034924;28;20524;-63
2023/07/29 02:58:26;;;;;;;2.10;2.00;;;18.80;99.90;;;;;;5034301;28;20484;-63
2023/07/29 03:00:52;;;;;;;2.87;2.20;;;18.80;99.90;;;;;;5034579;28;20810;-63
2023/07/29 03:03:19;;;;;;;3.27;2.60;;;18.80;99.90;;;;;;5034699;28;20449;-64
2023/07/29 03:05:48;;;;;;;2.90;2.57;;;18.80;99.90;;;;;;5034592;28;20449;-64
2023/07/29 03:08:15;;;;;;;2.83;2.53;;;18.80;99.90;;;;;;5034217;28;20465;-63
2023/07/29 03:10:42;;;;;;;2.63;2.43;;;18.80;99.90;;;;;;5034388;28;20814;-63
2023/07/29 03:13:08;;;;;;;2.50;2.20;;;18.80;99.90;;;;;;5034275;28;20471;-63
2023/07/29 03:15:35;;;;;;;2.83;2.40;;;18.80;99.90;;;;;;5033740;28;20942;-63
2023/07/29 03:18:02;;;;;;;4.40;2.60;;;18.80;99.90;;;;;;5033639;28;20855;-63
2023/07/29 03:20:29;;;;;;;2.77;2.57;;;18.80;99.90;;;;;;5034093;28;20449;-63
2023/07/29 03:22:57;;;;;;;2.50;2.30;;;18.80;99.90;;;;;;5034045;28;20441;-64
2023/07/29 03:25:23;;;;;;;3.80;3.07;;;18.80;99.90;;;;;;5033915;28;20449;-64
2023/07/29 03:27:50;;;;;;;2.33;2.10;;;18.80;99.90;;;;;;5033322;28;20461;-64
2023/07/29 03:30:20;;;;;;;1.83;1.73;;;18.80;99.90;;;;;;5035084;28;20512;-64
2023/07/29 03:32:47;;;;;;;2.90;2.20;;;18.80;99.90;;;;;;5035673;28;20441;-64
2023/07/29 03:35:14;;;;;;;2.83;2.20;;;18.80;99.90;;;;;;5033877;28;20532;-64
2023/07/29 03:37:41;;;;;;;2.40;1.80;;;18.80;99.90;;;;;;5033737;28;20480;-64
2023/07/29 03:40:10;;;;;;;2.20;2.00;;;18.90;99.90;;;;;;5033556;28;20445;-64
2023/07/29 03:42:37;;;;;;;6.13;2.30;;;18.90;99.90;;;;;;5033187;28;20456;-64
2023/07/29 03:45:05;;;;;;;2.30;2.10;;;18.90;99.90;;;;;;5033641;28;20477;-64
2023/07/29 03:47:32;;;;;;;2.80;2.10;;;18.90;99.90;;;;;;5033167;28;20465;-64
2023/07/29 03:49:58;;;;;;;2.33;1.97;;;18.90;99.90;;;;;;5033523;28;20445;-63
2023/07/29 03:52:25;;;;;;;3.00;2.27;;;18.90;99.90;;;;;;5033437;28;20449;-64
2023/07/29 03:54:52;;;;;;;2.27;1.93;;;18.90;99.90;;;;;;5033373;28;20443;-64
2023/07/29 03:57:20;;;;;;;2.20;2.10;;;18.90;99.90;;;;;;5032948;28;20501;-64
2023/07/29 03:59:47;;;;;;;2.40;2.20;;;18.90;99.90;;;;;;5033423;28;20473;-63
2023/07/29 04:02:14;;;;;;;2.77;2.50;;;18.90;99.90;;;;;;5033005;28;20449;-63
2023/07/29 04:04:41;;;;;;;2.83;2.20;;;18.90;99.90;;;;;;5033331;28;20453;-64
2023/07/29 04:07:08;;;;;;;2.23;2.00;;;19.00;99.90;;;;;;5033977;28;20480;-64
2023/07/29 04:12:01;;;;;;;2.73;2.47;;;19.00;99.90;;;;;;5111618;27;20537;-63
2023/07/29 04:14:27;;;;;;;2.57;2.37;;;19.00;99.90;;;;;;5110729;28;20954;-63
2023/07/29 04:16:54;;;;;;;2.37;2.17;;;19.00;99.90;;;;;;5110758;28;20462;-63
2023/07/29 04:19:21;;;;;;;3.67;2.03;;;19.00;99.90;;;;;;5110811;28;20436;-63
2023/07/29 04:21:50;;;;;;;2.47;2.27;;;19.00;99.90;;;;;;5110895;28;20477;-65
2023/07/29 04:24:17;;;;;;;2.37;2.17;;;19.00;99.90;;;;;;5110860;28;20446;-66
2023/07/29 04:26:44;;;;;;;3.10;2.10;;;19.00;99.90;;;;;;5110784;28;20466;-65
2023/07/29 04:29:12;;;;;;;2.20;2.00;;;19.00;99.90;;;;;;5110744;28;20502;-65
2023/07/29 04:31:39;;;;;;;3.63;2.77;;;18.90;99.90;;;;;;5110794;28;20473;-66
2023/07/29 04:34:06;;;;;;;2.37;2.10;;;18.90;99.90;;;;;;5110706;28;20536;-65
2023/07/29 04:36:33;;;;;;;2.40;2.20;;;18.90;99.90;;;;;;5110742;28;20441;-65
2023/07/29 04:38:59;;;;;;;3.20;2.50;;;18.90;99.90;;;;;;5111144;28;20448;-65
2023/07/29 04:41:26;;;;;;;2.97;2.40;;;18.90;99.90;;;;;;5110693;28;20487;-65
2023/07/29 04:43:53;;;;;;;6.93;3.87;;;18.90;99.90;;;;;;5111115;28;20438;-65
2023/07/29 04:46:21;;;;;;;3.53;3.23;;;18.80;99.90;;;;;;5110918;28;20449;-64
2023/07/29 04:48:48;;;;;;;3.43;2.97;;;18.80;99.90;;;;;;5111311;28;20444;-64
2023/07/29 04:51:15;;;;;;;2.80;2.60;;;18.80;99.90;;;;;;5111029;28;20473;-64
2023/07/29 04:53:41;;;;;;;5.50;2.70;;;18.80;99.90;;;;;;5110939;28;20455;-65
2023/07/29 04:56:08;;;;;;;2.43;2.23;;;18.80;99.90;;;;;;5110446;28;20445;-64
2023/07/29 04:58:35;;;;;;;2.43;2.23;;;18.80;99.90;;;;;;5110634;28;20506;-65
2023/07/29 05:01:02;;;;;;;3.30;2.33;;;18.80;99.90;;;;;;5110561;28;20782;-64
2023/07/29 05:03:31;;;;;;;2.20;2.00;;;18.80;99.90;;;;;;5110359;28;20457;-66
2023/07/29 05:05:59;;;;;;;2.43;2.23;;;18.80;99.90;;;;;;5110407;28;20446;-65
2023/07/29 05:08:26;;;;;;;4.07;3.70;;;18.80;99.90;;;;;;5110814;28;20549;-65
2023/07/29 05:10:53;;;;;;;3.50;3.20;;;18.80;99.90;;;;;;5110179;28;20483;-65
2023/07/29 05:13:21;;;;;;;3.80;3.50;;;18.80;99.90;;;;;;5110291;28;20445;-65
2023/07/29 05:15:48;;;;;;;4.80;4.30;;;18.80;99.90;;;;;;5110479;28;20452;-65
2023/07/29 05:18:15;;;;;;;3.90;3.60;;;18.90;99.90;;;;;;5110584;28;20472;-65
2023/07/29 05:20:44;;;;;;;3.40;2.90;;;18.90;99.90;;;;;;5111124;28;20444;-65
2023/07/29 05:23:10;;;;;;;3.20;2.90;;;18.90;99.90;;;;;;5098374;28;20442;-65
2023/07/29 05:25:37;;;;;;;3.80;3.50;;;18.90;99.90;;;;;;5098106;28;20809;-66
2023/07/29 05:28:04;;;;;;;3.67;3.10;;;18.90;99.90;;;;;;5097587;28;21036;-66
2023/07/29 05:30:33;;;;;;;3.00;2.20;;;18.90;99.90;;;;;;5097031;28;20470;-66
2023/07/29 05:33:00;;;;;;;2.80;2.37;;;19.00;99.90;;;;;;5096666;28;20442;-66
2023/07/29 05:35:28;;;;;;;2.20;2.00;;;19.00;99.90;;;;;;5096400;28;20446;-65
2023/07/29 05:37:56;;;;;;;3.03;2.57;;;19.00;99.90;;;;;;5096205;28;20466;-65
2023/07/29 05:40:22;;;;;;;4.30;3.20;;;19.00;99.90;;;;;;5096187;28;20456;-65
2023/07/29 05:42:49;;;;;;;3.40;3.10;;;19.10;99.90;;;;;;5096711;28;20449;-66
2023/07/29 05:45:16;;;;;;;2.37;2.20;;;19.20;99.90;;;;;;5096825;28;20449;-66
2023/07/29 05:47:43;;;;;;;2.80;2.27;;;19.30;99.90;;;;;;5097656;28;20462;-66
2023/07/29 05:50:10;;;;;;;3.00;2.20;;;19.50;99.90;;;;;;5097090;28;20449;-66
2023/07/29 05:52:38;;;;;;;3.30;2.20;;;19.60;99.90;;;;;;5098148;28;20447;-66
2023/07/29 05:55:07;;;;;;;4.23;2.90;;;19.70;99.90;;;;;;5098528;28;20803;-66
2023/07/29 05:57:33;;;;;;;2.97;2.67;;;19.80;99.90;;;;;;5095816;28;20825;-66
2023/07/29 06:00:00;;;;;;;3.23;2.83;;;19.80;99.90;;;;;;5095700;28;20461;-66
2023/07/29 06:02:27;;;;;;;2.70;2.50;;;19.90;99.90;;;;;;5095428;28;20466;-66
2023/07/29 06:04:54;;;;;;;3.93;2.67;;;20.00;99.90;;;;;;5095131;28;20444;-66
2023/07/29 06:07:21;;;;;;;2.53;2.33;;;20.00;99.90;;;;;;5096169;28;20462;-66
2023/07/29 06:09:48;;;;;;;4.77;2.80;;;20.00;99.90;;;;;;5095364;28;20468;-65
2023/07/29 06:12:16;;;;;;;2.90;1.97;;;20.00;99.90;;;;;;5095597;28;20473;-66
2023/07/29 06:14:42;;;;;;;2.53;2.33;;;19.90;99.90;;;;;;5095283;28;20442;-66
2023/07/29 06:17:11;;;;;;;3.80;2.40;;;19.80;99.90;;;;;;5107522;22;20491;-62
2023/07/29 06:19:38;;;;;;;2.10;1.90;;;19.70;99.90;;;;;;5034646;28;20922;-61
2023/07/29 06:22:05;;;;;;;3.40;2.57;;;19.60;99.90;;;;;;5034912;28;20436;-61
2023/07/29 06:24:33;;;;;;;3.50;3.20;;;19.50;99.90;;;;;;5034994;28;20515;-63
2023/07/29 06:26:59;;;;;;;10.23;3.33;;;19.50;99.90;;;;;;5034759;28;20445;-62
2023/07/29 06:29:28;;;;;;;3.60;3.10;;;19.50;99.90;;;;;;5034831;28;20551;-62
2023/07/29 06:31:54;;;;;;;7.30;2.73;;;19.50;99.90;;;;;;5035230;28;20858;-62
2023/07/29 06:34:21;;;;;;;3.90;3.03;;;19.50;99.90;;;;;;5033711;28;20453;-61
2023/07/29 06:36:48;;;;;;;3.50;3.20;;;19.60;99.90;;;;;;5034616;28;20445;-61
2023/07/29 06:39:15;;;;;;;2.63;2.43;;;19.70;99.90;;;;;;5034961;28;20452;-62
2023/07/29 06:41:42;;;;;;;2.97;2.67;;;19.70;99.90;;;;;;5034630;28;20927;-61
2023/07/29 06:44:08;;;;;;;2.50;2.23;;;19.90;99.90;;;;;;5034723;28;20448;-62
2023/07/29 06:46:36;;;;;;;2.97;2.70;;;20.00;99.90;;;;;;5035492;28;20449;-61
2023/07/29 06:49:03;;;;;;;3.60;2.70;;;20.20;99.90;;;;;;5034694;28;20469;-62
2023/07/29 06:51:32;;;;;;;2.80;2.50;;;20.40;99.90;;;;;;5034499;28;21014;-62
2023/07/29 06:53:59;;;;;;;2.70;2.50;;;20.60;99.90;;;;;;5034603;28;20477;-62
2023/07/29 06:56:26;;;;;;;2.70;2.50;;;20.90;99.90;;;;;;5035301;28;20446;-62
2023/07/29 06:58:52;;;;;;;2.53;2.33;;;21.30;99.90;;;;;;5035434;28;20468;-62
2023/07/29 07:01:19;;;;;;;2.60;2.40;;;21.50;99.90;;;;;;5035027;28;20448;-61
2023/07/29 07:03:47;;;;;;;3.33;2.30;;;21.70;99.90;;;;;;5034144;28;20447;-62
2023/07/29 07:06:14;;;;;;;3.33;2.43;;;21.90;99.90;;;;;;5035012;28;20448;-61
2023/07/29 07:08:42;;;;;;;3.17;2.17;;;22.10;99.90;;;;;;5034975;28;20467;-63
2023/07/29 07:11:09;;;;;;;4.80;1.90;;;22.20;99.90;;;;;;5034563;28;20570;-61
2023/07/29 07:13:36;;;;;;;2.87;1.97;;;22.20;99.90;;;;;;5035057;28;20451;-62
2023/07/29 07:16:03;;;;;;;2.07;1.97;;;22.30;99.90;;;;;;5034733;28;20448;-63
2023/07/29 07:18:29;;;;;;;5.40;2.03;;;22.30;99.90;;;;;;5034462;28;20479;-62
2023/07/29 07:20:57;;;;;;;4.40;2.37;;;22.30;99.90;;;;;;5035466;28;20443;-62
2023/07/29 07:23:24;;;;;;;2.60;2.40;;;22.20;99.90;;;;;;5034167;28;20939;-62
2023/07/29 07:25:51;;;;;;;3.70;2.60;;;22.20;99.90;;;;;;5034524;28;20466;-62
2023/07/29 07:28:18;;;;;;;2.73;2.53;;;22.20;99.90;;;;;;5033742;28;20986;-62
2023/07/29 07:30:44;;;;;;;3.03;2.03;;;22.10;99.90;;;;;;5034737;28;20471;-63
2023/07/29 07:33:11;;;;;;;2.30;2.10;;;22.20;99.90;;;;;;5035340;28;20540;-62
2023/07/29 07:35:38;;;;;;;2.33;2.17;;;22.20;99.90;;;;;;5033887;28;20445;-62
2023/07/29 07:38:07;;;;;;;2.50;2.30;;;22.20;99.90;;;;;;5034413;28;20472;-63
2023/07/29 07:40:34;;;;;;;3.93;3.17;;;22.30;99.90;;;;;;5034525;28;20445;-61
2023/07/29 07:43:01;;;;;;;3.07;2.43;;;22.30;99.90;;;;;;5034587;28;20452;-61
2023/07/29 07:45:28;;;;;;;2.50;2.30;;;22.30;99.90;;;;;;5033517;28;20445;-62
2023/07/29 07:47:54;;;;;;;2.70;2.10;;;22.30;99.90;;;;;;5033649;28;20472;-61
2023/07/29 07:50:21;;;;;;;2.80;2.33;;;22.30;99.90;;;;;;5033420;28;20459;-62
2023/07/29 07:52:48;;;;;;;2.00;1.83;;;22.50;99.90;;;;;;5033095;28;20486;-62
2023/07/29 07:55:16;;;;;;;2.20;2.00;;;22.70;99.90;;;;;;5033848;28;20458;-61
2023/07/29 07:57:43;;;;;;;2.53;2.20;;;22.80;99.90;;;;;;5033662;28;20453;-61
2023/07/29 08:00:11;;;;;;;4.30;1.90;;;23.00;99.90;;;;;;5033854;28;20457;-61
2023/07/29 08:02:38;;;;;;;1.70;1.60;;;23.20;99.90;;;;;;5034049;28;20441;-61
2023/07/29 08:05:05;;;;;;;3.70;1.80;;;23.30;99.90;;;;;;5033466;28;20452;-61
2023/07/29 08:07:32;;;;;;;3.00;2.10;;;23.40;99.90;;;;;;5033492;28;20970;-61
2023/07/29 08:09:59;;;;;;;4.30;2.07;;;23.40;99.90;;;;;;5033909;28;20944;-61
2023/07/29 08:12:27;;;;;;;2.10;1.90;;;23.40;99.90;;;;;;5033956;28;20994;-61
2023/07/29 08:14:54;;;;;;;1.93;1.67;;;23.40;99.90;;;;;;5033765;28;20453;-62
2023/07/29 08:17:20;;;;;;;2.23;2.03;;;23.50;99.90;;;;;;5033554;28;20479;-61
2023/07/29 08:19:47;;;;;;;2.37;2.17;;;23.50;99.90;;;;;;5033663;28;20443;-61
2023/07/29 08:22:14;;;;;;;3.90;1.90;;;23.40;99.90;;;;;;5033323;28;20448;-61
2023/07/29 08:24:41;;;;;;;2.93;2.10;;;23.30;99.90;;;;;;5033485;28;20507;-60
2023/07/29 08:27:08;;;;;;;2.87;2.60;;;23.30;99.90;;;;;;5033680;28;20464;-60
2023/07/29 08:29:36;;;;;;;4.10;2.90;;;23.40;99.90;;;;;;5033787;28;20447;-62
2023/07/29 08:32:03;;;;;;;3.10;2.73;;;23.50;99.90;;;;;;5034161;28;20487;-61
2023/07/29 08:34:30;;;;;;;4.40;2.00;;;23.70;99.90;;;;;;5034023;28;20454;-62
2023/07/29 08:36:57;;;;;;;2.90;2.03;;;23.70;99.90;;;;;;5034150;28;20456;-61
2023/07/29 08:39:23;;;;;;;2.60;2.40;;;23.60;99.90;;;;;;5033628;28;20466;-61
2023/07/29 08:41:58;;;;;;;2.77;2.57;;;23.50;99.90;;;;;;5033594;28;20441;-61
2023/07/29 08:44:27;;;;;;;5.27;3.00;;;23.30;99.90;;;;;;5033649;28;20438;-60
2023/07/29 08:46:57;;;;;;;3.23;2.93;;;23.10;99.90;;;;;;5033126;28;20533;-61
2023/07/29 08:49:24;;;;;;;3.50;2.87;;;22.90;99.90;;;;;;5033659;28;20465;-62
2023/07/29 08:51:54;;;;;;;4.10;3.23;;;22.90;99.90;;;;;;5034042;28;20487;-60
2023/07/29 08:54:21;;;;;;;2.67;2.47;;;22.80;99.90;;;;;;5033749;28;20815;-61
2023/07/29 08:56:48;;;;;;;3.17;2.87;;;22.90;99.90;;;;;;5033695;28;20450;-61
2023/07/29 08:59:16;;;;;;;2.50;2.30;;;22.90;99.90;;;;;;5037509;28;20454;-61
2023/07/29 09:01:44;;;;;;;2.60;2.40;;;23.00;99.90;;;;;;5037343;28;20544;-61
2023/07/29 09:04:12;;;;;;;3.53;3.23;;;23.00;99.90;;;;;;5037412;28;20445;-60
2023/07/29 09:06:40;;;;;;;2.97;2.73;;;23.10;99.90;;;;;;5037235;28;20463;-61
2023/07/29 09:09:09;;;;;;;3.20;3.00;;;23.20;99.90;;;;;;5037043;28;20449;-61
2023/07/29 09:11:36;;;;;;;2.70;2.50;;;23.40;99.90;;;;;;5036921;28;20474;-61
2023/07/29 09:14:03;;;;;;;4.63;4.23;;;23.50;99.90;;;;;;5037613;28;20472;-62
2023/07/29 09:16:30;;;;;;;4.07;3.77;;;23.50;99.90;;;;;;5036438;28;20926;-61
2023/07/29 09:19:02;;;;;;;3.20;2.53;;;23.60;99.90;;;;;;5036098;28;20509;-62
2023/07/29 09:21:31;;;;;;;4.33;3.93;;;23.80;99.90;;;;;;5036920;28;20457;-62
2023/07/29 09:23:57;;;;;;;2.80;2.60;;;24.20;99.90;;;;;;5036672;28;20541;-62
2023/07/29 09:26:27;;;;;;;3.13;2.83;;;24.50;99.90;;;;;;5037218;28;20442;-62
2023/07/29 09:28:56;;;;;;;2.90;2.70;;;24.90;99.90;;;;;;5037399;28;20480;-62
2023/07/29 09:31:24;;;;;;;3.23;3.03;;;25.40;99.90;;;;;;5036910;28;20898;-62
2023/07/29 09:33:56;;;;;;;2.93;2.73;;;25.80;99.90;;;;;;5037117;28;20450;-61
2023/07/29 09:36:23;;;;;;;3.30;3.10;;;26.20;99.90;;;;;;5037033;28;20435;-61
2023/07/29 09:38:53;;;;;;;3.60;3.30;;;26.00;99.40;;;;;;5036155;28;20811;-63
2023/07/29 09:41:22;;;;;;;4.63;4.10;;;25.70;99.80;;;;;;5037710;28;20443;-62
2023/07/29 09:43:55;;;;;;;4.63;3.90;;;25.20;99.90;;;;;;5037933;28;20467;-62
2023/07/29 09:46:24;;;;;;;5.10;4.60;;;24.90;99.90;;;;;;5038444;28;20521;-63
2023/07/29 09:48:54;;;;;;;6.07;5.10;;;24.40;99.90;;;;;;5037076;28;20484;-62
2023/07/29 09:51:21;;;;;;;7.40;6.70;;;23.90;99.90;;;;;;5037265;28;20450;-61
2023/07/29 09:53:50;;;;;;;7.40;6.63;;;23.20;99.90;;;;;;5036539;28;20449;-62
2023/07/29 09:56:18;;;;;;;7.90;7.10;;;22.50;99.90;;;;;;5037052;28;20520;-60
2023/07/29 09:58:46;;;;;;;7.47;6.77;;;22.00;99.90;;;;;;5037400;28;20980;-62
2023/07/29 10:01:14;;;;;;;7.40;6.60;;;21.70;99.90;;;;;;5037438;28;20444;-61
2023/07/29 10:03:41;;;;;;;9.77;7.90;;;21.50;99.90;;;;;;5037704;28;20456;-62
2023/07/29 10:06:08;;;;;;;8.90;7.50;;;21.50;99.90;;;;;;5037213;28;20448;-61
2023/07/29 10:08:38;;;;;;;7.57;6.80;;;21.80;99.90;;;;;;5036750;28;20471;-59
2023/07/29 10:11:06;;;;;;;7.87;7.13;;;22.10;99.90;;;;;;5037395;28;20443;-60
2023/07/29 10:13:35;;;;;;;8.07;7.30;;;22.40;99.90;;;;;;5037735;28;20488;-61
2023/07/29 10:16:03;;;;;;;7.40;6.60;;;22.70;99.90;;;;;;5037154;28;20535;-61
2023/07/29 10:18:31;;;;;;;7.70;6.90;;;23.00;99.90;;;;;;5036895;28;20476;-62
2023/07/29 10:20:59;;;;;;;8.10;7.30;;;23.20;99.90;;;;;;5037171;28;20497;-63
2023/07/29 10:23:27;;;;;;;7.47;6.77;;;23.30;99.90;;;;;;5037152;28;20533;-60
2023/07/29 10:26:00;;;;;;;7.07;6.33;;;23.40;99.90;;;;;;5036754;28;20450;-61
2023/07/29 10:28:30;;;;;;;7.30;6.70;;;23.50;99.90;;;;;;5036398;28;20568;-61
2023/07/29 10:30:59;;;;;;;6.37;5.80;;;23.50;99.90;;;;;;5037051;28;20450;-62
2023/07/29 10:33:26;;;;;;;6.10;5.60;;;23.60;99.90;;;;;;5036987;28;20479;-61
2023/07/29 10:35:54;;;;;;;6.67;6.00;;;23.90;99.90;;;;;;5038171;28;20447;-61
2023/07/29 10:38:23;;;;;;;5.00;4.60;;;24.20;99.90;;;;;;5039944;28;20497;-61
2023/07/29 10:40:55;;;;;;;6.77;5.43;;;24.40;99.90;;;;;;5040122;28;20530;-61
2023/07/29 10:43:26;;;;;;;7.77;5.90;;;24.40;99.90;;;;;;5040194;28;20528;-63
2023/07/29 10:45:54;;;;;;;7.60;4.87;;;24.60;99.90;;;;;;5039087;28;20425;-61
2023/07/29 10:48:42;;;;;;;5.03;4.60;;;24.70;99.90;;;;;;5038598;28;20559;-61
2023/07/29 10:51:24;;;;;;;5.17;4.27;;;25.00;99.90;;;;;;5037075;28;20942;-61
2023/07/29 10:53:54;;;;;;;4.73;4.23;;;25.30;99.00;;;;;;5037581;28;20472;-62
2023/07/29 10:56:27;;;;;;;5.30;4.03;;;25.80;96.80;;;;;;5036943;28;20518;-58
2023/07/29 10:58:56;;;;;;;4.17;3.67;;;26.10;94.10;;;;;;5036464;28;20974;-61
2023/07/29 11:01:29;;;;;;;3.77;3.40;;;26.50;92.00;;;;;;5035872;28;20449;-60
2023/07/29 11:04:30;;;;;;;3.30;3.00;;;26.80;88.00;;;;;;5037128;28;20430;-61
2023/07/29 11:07:27;;;;;;;3.43;3.13;;;26.80;81.80;;;;;;5036668;28;20473;-61
2023/07/29 11:10:00;;;;;;;3.67;2.93;;;26.70;76.00;;;;;;5036131;28;20431;-61
2023/07/29 11:12:37;;;;;;;3.90;2.63;;;26.40;71.60;;;;;;5035476;28;20466;-61
2023/07/29 11:15:12;;;;;;;3.57;3.03;;;26.10;72.00;;;;;;5036768;28;20447;-61
2023/07/29 11:17:42;;;;;;;2.60;2.40;;;25.70;73.50;;;;;;5036006;28;20850;-61
2023/07/29 11:20:11;;;;;;;3.37;2.87;;;25.30;75.20;;;;;;5035741;28;20839;-61
2023/07/29 11:22:39;;;;;;;3.40;2.87;;;24.90;77.10;;;;;;5036020;28;20447;-60
2023/07/29 11:25:07;;;;;;;2.90;2.70;;;24.80;79.00;;;;;;5035881;28;20620;-62
2023/07/29 11:27:34;;;;;;;2.97;2.77;;;24.70;79.90;;;;;;5035559;28;20468;-61
2023/07/29 11:30:04;;;;;;;4.00;3.10;;;24.50;79.40;;;;;;5036556;28;20461;-62
2023/07/29 11:32:32;;;;;;;2.97;2.77;;;24.30;79.00;;;;;;5036337;28;20477;-61
2023/07/29 11:35:03;;;;;;;3.00;2.80;;;24.20;79.30;;;;;;5035585;28;20954;-60
2023/07/29 11:37:32;;;;;;;3.17;2.30;;;24.20;78.70;;;;;;5036041;28;20498;-60
2023/07/29 11:39:59;;;;;;;3.13;2.00;;;24.30;76.50;;;;;;5035173;28;20892;-61
2023/07/29 11:42:27;;;;;;;2.50;2.23;;;24.40;74.20;;;;;;5035946;28;20937;-62
2023/07/29 11:44:54;;;;;;;2.70;2.50;;;24.70;71.20;;;;;;5036459;28;20443;-61
2023/07/29 11:47:21;;;;;;;2.33;1.60;;;25.10;68.80;;;;;;5035549;28;20478;-58
2023/07/29 11:49:48;;;;;;;1.40;1.10;;;25.40;66.10;;;;;;5035475;28;21020;-60
2023/07/29 11:52:18;;;;;;;2.87;1.17;;;25.50;62.10;;;;;;5034784;28;20457;-62
2023/07/29 11:54:47;;;;;;;1.40;1.30;;;25.50;59.10;;;;;;5035406;28;20440;-61
2023/07/29 11:57:15;;;;;;;1.13;0.70;;;25.60;57.30;;;;;;5035785;28;20468;-60
2023/07/29 11:59:43;;;;;;;1.27;0.90;;;25.70;56.10;;;;;;5035713;28;20457;-62
2023/07/29 12:02:12;;;;;;;2.63;0.97;;;25.90;55.30;;;;;;5035456;28;20442;-61
2023/07/29 12:04:40;;;;;;;2.47;1.00;;;26.40;55.00;;;;;;5035544;28;20472;-63
2023/07/29 12:07:07;;;;;;;1.00;0.80;;;26.90;54.10;;;;;;5035435;28;20512;-63
2023/07/29 12:09:35;;;;;;;1.20;0.90;;;27.00;53.00;;;;;;5036300;28;20457;-65
2023/07/29 12:12:04;;;;;;;1.27;0.97;;;26.50;53.30;;;;;;5036386;28;20444;-62
2023/07/29 12:14:31;;;;;;;1.10;0.83;;;26.10;54.30;;;;;;5037230;28;20444;-64
2023/07/29 12:17:01;;;;;;;2.53;1.00;;;25.90;55.00;;;;;;5037087;28;20450;-64
2023/07/29 12:19:33;;;;;;;1.50;1.20;;;25.80;55.60;;;;;;5036569;28;20423;-64
2023/07/29 12:21:59;;;;;;;4.23;1.47;;;26.10;55.00;;;;;;5036355;28;20436;-65
2023/07/29 12:24:26;;;;;;;1.30;1.13;;;26.40;54.50;;;;;;5035268;28;20467;-64
2023/07/29 12:26:53;;;;;;;2.50;1.00;;;26.50;54.20;;;;;;5035206;28;20431;-65
2023/07/29 12:29:22;;;;;;;1.20;1.07;;;26.80;53.60;;;;;;5035889;28;20442;-63
2023/07/29 12:31:49;;;;;;;1.20;0.90;;;27.50;52.20;;;;;;5036395;28;21085;-61
2023/07/29 12:34:19;;;;;;;2.07;1.10;;;28.10;50.70;;;;;;5039287;28;20608;-62
2023/07/29 12:36:48;;;;;;;1.40;1.00;;;28.40;49.70;;;;;;5039461;28;20432;-61
2023/07/29 12:39:19;;;;;;;1.30;1.10;;;28.50;49.60;;;;;;5040623;28;20446;-62
2023/07/29 12:41:46;;;;;;;1.10;0.93;;;28.60;49.30;;;;;;5039561;28;20462;-60
2023/07/29 12:44:13;;;;;;;1.97;1.07;;;28.30;48.80;;;;;;5040455;28;20527;-62
2023/07/29 12:46:41;;;;;;;1.10;0.90;;;27.90;49.10;;;;;;5038322;28;20444;-62
2023/07/29 12:49:08;;;;;;;2.40;1.20;;;27.70;49.20;;;;;;5037765;28;20456;-62
2023/07/29 12:51:36;;;;;;;2.27;1.17;;;27.50;49.60;;;;;;5038938;28;20968;-62
2023/07/29 12:54:02;;;;;;;1.70;0.90;;;27.30;49.90;;;;;;5037893;28;20901;-61